Time;durP1;ratioP1;P1;durP2;ratioP2;P2;SDS_P1;SDS_P2;PMS_P1;PMS_P2;Temp;Humidity;BMP_temperature;BMP_pressure;BME280_temperature;BME280_humidity;BME280_pressure;Samples;Min_cycle;Max_cycle;Signal;HPM_P1;HPM_P2
2023/11/09 00:01:36;;;;;;;0.57;0.50;;;;;;;12.10;90.61;99743.19;4992096;28;20048;-70
2023/11/09 00:04:02;;;;;;;0.40;0.40;;;;;;;12.08;90.38;99736.66;4981417;28;20046;-71
2023/11/09 00:06:27;;;;;;;0.28;0.25;;;;;;;12.11;90.19;99733.94;4969069;28;20033;-70
2023/11/09 00:08:53;;;;;;;0.63;0.63;;;;;;;12.06;90.69;99730.88;4996434;28;20514;-70
2023/11/09 00:11:20;;;;;;;1.10;0.57;;;;;;;11.99;91.94;99726.25;4980038;28;20029;-70
2023/11/09 00:13:46;;;;;;;0.55;0.55;;;;;;;12.10;91.63;99731.63;4970971;28;20093;-70
2023/11/09 00:16:13;;;;;;;0.60;0.60;;;;;;;12.09;91.96;99727.38;4977262;28;20022;-70
2023/11/09 00:18:39;;;;;;;3.35;0.40;;;;;;;12.10;91.60;99718.88;4978131;28;20089;-70
2023/11/09 00:21:05;;;;;;;0.68;0.65;;;;;;;12.16;91.61;99716.56;4983878;28;20042;-70
2023/11/09 00:23:31;;;;;;;0.65;0.35;;;;;;;12.18;92.05;99716.94;4982929;28;20036;-70
2023/11/09 00:25:58;;;;;;;0.60;0.60;;;;;;;12.11;91.99;99709.66;4986573;28;20026;-70
2023/11/09 00:28:24;;;;;;;0.40;0.40;;;;;;;11.96;92.58;99702.75;4979659;28;20034;-70
2023/11/09 00:30:49;;;;;;;0.70;0.50;;;;;;;11.99;93.12;99703.88;4971620;28;20450;-69
2023/11/09 00:33:15;;;;;;;1.05;0.50;;;;;;;11.95;93.56;99693.09;4984029;28;20085;-70
2023/11/09 00:35:41;;;;;;;4.40;0.65;;;;;;;11.96;93.61;99700.03;4985874;28;20034;-70
2023/11/09 00:38:07;;;;;;;0.45;0.45;;;;;;;11.90;94.13;99695.41;4969338;28;20053;-70
2023/11/09 00:40:33;;;;;;;1.63;0.60;;;;;;;11.95;93.83;99687.69;4984120;28;20049;-70
2023/11/09 00:42:59;;;;;;;1.05;0.50;;;;;;;11.90;93.68;99681.91;4975533;28;20034;-70
2023/11/09 00:45:25;;;;;;;0.90;0.60;;;;;;;11.91;94.51;99681.53;4998582;28;20096;-70
2023/11/09 00:47:52;;;;;;;0.32;0.32;;;;;;;11.81;94.64;99679.59;4979205;28;20447;-70
2023/11/09 00:50:17;;;;;;;0.85;0.57;;;;;;;11.94;94.23;99669.97;4977171;28;20027;-70
2023/11/09 00:52:43;;;;;;;0.60;0.60;;;;;;;12.01;93.87;99671.88;4989170;28;20087;-70
2023/11/09 00:55:08;;;;;;;0.43;0.43;;;;;;;11.95;93.82;99666.09;4982963;28;20027;-69
2023/11/09 00:57:34;;;;;;;0.68;0.68;;;;;;;12.01;94.32;99666.47;4978083;28;20038;-70
2023/11/09 01:00:00;;;;;;;2.58;0.60;;;;;;;12.08;93.97;99663.78;4969692;28;20093;-70
2023/11/09 01:02:25;;;;;;;0.85;0.50;;;;;;;12.07;93.05;99654.91;4981596;28;20064;-69
2023/11/09 01:04:51;;;;;;;0.47;0.35;;;;;;;12.06;93.28;99655.31;4972893;28;20028;-70
2023/11/09 01:07:17;;;;;;;0.60;0.40;;;;;;;12.05;92.91;99646.44;4980888;28;20409;-70
2023/11/09 01:09:45;;;;;;;0.52;0.52;;;;;;;12.10;93.00;99656.06;4995387;28;20104;-70
2023/11/09 01:12:11;;;;;;;1.58;0.63;;;;;;;12.09;92.50;99649.13;4988921;28;20084;-70
2023/11/09 01:14:37;;;;;;;1.02;0.50;;;;;;;12.04;93.57;99655.66;4986741;28;20070;-70
2023/11/09 01:17:03;;;;;;;0.93;0.70;;;;;;;12.10;93.11;99648.72;4960953;28;20042;-70
2023/11/09 01:19:30;;;;;;;0.57;0.50;;;;;;;12.10;92.73;99639.88;4961569;28;20042;-71
2023/11/09 01:21:56;;;;;;;0.93;0.88;;;;;;;12.06;92.99;99645.25;4997228;28;20044;-70
2023/11/09 01:24:21;;;;;;;0.50;0.50;;;;;;;12.08;93.01;99640.25;4981886;28;20034;-70
2023/11/09 01:26:47;;;;;;;0.93;0.52;;;;;;;12.03;93.15;99629.09;4974267;28;20065;-70
2023/11/09 01:29:13;;;;;;;0.40;0.40;;;;;;;12.11;93.13;99628.69;4976935;28;20054;-70
2023/11/09 01:31:39;;;;;;;0.57;0.57;;;;;;;12.21;92.01;99619.00;5002535;28;20410;-70
2023/11/09 01:34:05;;;;;;;0.77;0.70;;;;;;;12.23;92.91;99609.34;4986957;28;20058;-70
2023/11/09 01:36:30;;;;;;;0.60;0.60;;;;;;;12.27;92.52;99612.06;4979111;28;20042;-70
2023/11/09 01:38:56;;;;;;;0.57;0.45;;;;;;;12.21;93.03;99617.09;5000461;28;20034;-69
2023/11/09 01:41:22;;;;;;;3.00;0.50;;;;;;;12.23;93.07;99612.03;4980578;28;20038;-70
2023/11/09 01:43:57;;;;;;;1.33;0.80;;;;;;;12.17;93.31;99602.84;4979654;28;20033;-70
2023/11/09 01:46:27;;;;;;;0.43;0.43;;;;;;;12.24;93.82;99599.31;4977659;28;20089;-70
2023/11/09 01:48:53;;;;;;;0.55;0.50;;;;;;;12.21;94.31;99600.91;4986873;28;20486;-70
2023/11/09 01:51:19;;;;;;;0.60;0.60;;;;;;;12.11;94.55;99582.81;4988175;28;20426;-70
2023/11/09 01:53:46;;;;;;;0.95;0.50;;;;;;;11.97;95.74;99588.25;4967452;28;20457;-70
2023/11/09 01:56:14;;;;;;;2.33;0.95;;;;;;;12.14;95.32;99575.84;4997289;28;20057;-70
2023/11/09 01:58:44;;;;;;;0.60;0.60;;;;;;;11.99;95.57;99583.22;4980733;28;20038;-70
2023/11/09 02:01:12;;;;;;;0.90;0.65;;;;;;;12.07;95.98;99560.47;4995208;28;20053;-70
2023/11/09 02:03:38;;;;;;;1.02;0.77;;;;;;;12.09;95.78;99576.25;4977360;28;20052;-70
2023/11/09 02:06:09;;;;;;;0.70;0.65;;;;;;;12.16;96.13;99570.81;4987698;28;20160;-69
2023/11/09 02:08:34;;;;;;;0.57;0.57;;;;;;;12.16;95.94;99560.81;4993903;28;20099;-70
2023/11/09 02:11:00;;;;;;;1.67;0.77;;;;;;;12.04;96.35;99560.47;4978650;28;20482;-71
2023/11/09 02:13:26;;;;;;;0.73;0.47;;;;;;;12.05;96.49;99562.78;5001839;28;20536;-70
2023/11/09 02:15:52;;;;;;;0.57;0.57;;;;;;;12.08;96.73;99553.13;4993147;28;20041;-70
2023/11/09 02:18:18;;;;;;;1.02;0.57;;;;;;;12.09;96.78;99551.97;4983003;28;20037;-71
2023/11/09 02:20:45;;;;;;;0.80;0.80;;;;;;;12.13;96.08;99545.41;4989114;28;20415;-71
2023/11/09 02:23:12;;;;;;;1.08;0.75;;;;;;;12.03;96.37;99548.13;4974897;28;20031;-73
2023/11/09 02:25:40;;;;;;;0.60;0.60;;;;;;;12.12;96.66;99546.56;4980820;28;20038;-70
2023/11/09 02:28:06;;;;;;;1.15;0.90;;;;;;;12.18;96.48;99539.59;4989177;28;20039;-70
2023/11/09 02:30:32;;;;;;;0.70;0.70;;;;;;;12.24;95.24;99542.66;4995898;28;20061;-70
2023/11/09 02:32:57;;;;;;;0.98;0.80;;;;;;;12.13;95.85;99529.22;4986446;28;20042;-70
2023/11/09 02:35:23;;;;;;;0.65;0.63;;;;;;;12.10;96.69;99521.88;4982116;28;20030;-70
2023/11/09 02:37:49;;;;;;;1.15;0.85;;;;;;;12.08;96.78;99524.19;4977763;28;20122;-70
2023/11/09 02:40:14;;;;;;;1.17;0.80;;;;;;;12.08;96.74;99524.19;4990349;28;20049;-70
2023/11/09 02:42:40;;;;;;;0.93;0.73;;;;;;;12.09;96.65;99522.28;4977740;28;20065;-70
2023/11/09 02:45:06;;;;;;;1.23;0.70;;;;;;;12.20;96.72;99525.69;4990666;28;20451;-70
2023/11/09 02:47:31;;;;;;;0.98;0.80;;;;;;;12.12;96.85;99514.16;4979016;28;20080;-70
2023/11/09 02:49:57;;;;;;;1.20;0.57;;;;;;;12.24;96.86;99512.94;4994239;28;20441;-70
2023/11/09 02:52:22;;;;;;;1.40;0.90;;;;;;;12.18;96.73;99512.59;4972097;28;20041;-70
2023/11/09 02:54:48;;;;;;;1.08;0.70;;;;;;;12.19;96.53;99508.75;4964171;28;20046;-70
2023/11/09 02:57:13;;;;;;;0.90;0.90;;;;;;;12.27;96.49;99504.09;4957709;28;20026;-70
2023/11/09 02:59:39;;;;;;;0.57;0.50;;;;;;;12.28;96.76;99506.38;4992287;28;20437;-70
2023/11/09 03:02:06;;;;;;;1.25;0.70;;;;;;;12.26;97.30;99502.53;4992772;28;20030;-70
2023/11/09 03:04:33;;;;;;;1.15;1.05;;;;;;;12.34;97.32;99501.34;4984765;28;20034;-70
2023/11/09 03:06:58;;;;;;;2.03;1.00;;;;;;;12.33;97.03;99505.97;4979559;28;20038;-70
2023/11/09 03:09:24;;;;;;;0.85;0.73;;;;;;;12.22;97.29;99491.75;4983794;28;20461;-70
2023/11/09 03:11:53;;;;;;;0.88;0.68;;;;;;;12.26;97.39;99494.44;4977931;28;20035;-70
2023/11/09 03:14:19;;;;;;;0.70;0.70;;;;;;;12.31;97.51;99486.69;4977469;28;20038;-71
2023/11/09 03:16:45;;;;;;;0.70;0.70;;;;;;;12.41;97.02;99488.56;4993469;28;20034;-71
2023/11/09 03:19:10;;;;;;;3.40;0.80;;;;;;;12.47;96.41;99484.28;4980774;28;20026;-69
2023/11/09 03:21:36;;;;;;;1.02;0.70;;;;;;;12.32;96.88;99479.34;4994236;28;20182;-70
2023/11/09 03:24:01;;;;;;;0.80;0.63;;;;;;;12.36;97.61;99470.09;4976031;28;20522;-70
2023/11/09 03:26:26;;;;;;;0.95;0.70;;;;;;;12.38;97.04;99469.69;4987150;28;20053;-69
2023/11/09 03:28:52;;;;;;;0.73;0.60;;;;;;;12.31;97.49;99470.47;4995799;28;20097;-70
2023/11/09 03:31:17;;;;;;;1.38;0.85;;;;;;;12.35;97.90;99463.13;4982580;28;20108;-70
2023/11/09 03:33:43;;;;;;;1.75;0.70;;;;;;;12.28;97.52;99467.81;4991577;28;20038;-70
2023/11/09 03:36:08;;;;;;;1.20;1.05;;;;;;;12.28;98.11;99455.09;4993228;28;20089;-70
2023/11/09 03:38:38;;;;;;;1.85;0.73;;;;;;;12.35;98.45;99459.69;4982569;28;20494;-70
2023/11/09 03:41:10;;;;;;;0.73;0.60;;;;;;;12.33;98.48;99453.91;4961004;28;20125;-70
2023/11/09 03:43:36;;;;;;;0.60;0.60;;;;;;;12.29;98.32;99451.22;4978477;28;20092;-70
2023/11/09 03:46:01;;;;;;;0.90;0.60;;;;;;;12.33;98.56;99453.91;4958042;28;20026;-70
2023/11/09 03:48:27;;;;;;;0.73;0.60;;;;;;;12.32;98.81;99442.34;4974654;28;20030;-71
2023/11/09 03:50:52;;;;;;;0.57;0.47;;;;;;;12.30;99.11;99439.28;4978481;28;20056;-72
2023/11/09 03:53:18;;;;;;;0.60;0.60;;;;;;;12.23;99.77;99439.28;4981200;28;20037;-71
2023/11/09 03:55:44;;;;;;;0.55;0.55;;;;;;;12.17;100.00;99434.72;4990278;28;20026;-70
2023/11/09 03:58:09;;;;;;;0.65;0.65;;;;;;;12.28;99.83;99428.09;4984289;28;20034;-71
2023/11/09 04:00:34;;;;;;;0.52;0.50;;;;;;;12.37;99.40;99433.03;4993011;28;20391;-70
2023/11/09 04:03:00;;;;;;;0.52;0.52;;;;;;;12.39;99.16;99434.19;4981642;28;20030;-71
2023/11/09 04:05:25;;;;;;;1.40;0.60;;;;;;;12.32;99.23;99438.88;4973507;28;20556;-71
2023/11/09 04:07:51;;;;;;;0.50;0.50;;;;;;;12.36;99.86;99428.81;4980819;28;20117;-71
2023/11/09 04:10:16;;;;;;;0.90;0.60;;;;;;;12.46;99.18;99427.97;4968806;28;20524;-71
2023/11/09 04:12:43;;;;;;;0.88;0.75;;;;;;;12.33;99.35;99433.06;4994935;28;20061;-71
2023/11/09 04:15:09;;;;;;;0.68;0.60;;;;;;;12.31;99.32;99427.28;4980653;28;20026;-71
2023/11/09 04:17:34;;;;;;;0.57;0.57;;;;;;;12.36;99.62;99418.78;4960967;28;20073;-71
2023/11/09 04:20:00;;;;;;;1.10;0.60;;;;;;;12.46;99.18;99419.88;4974496;28;20034;-71
2023/11/09 04:22:25;;;;;;;3.20;0.60;;;;;;;12.39;99.35;99422.59;4989853;28;20068;-71
2023/11/09 04:24:51;;;;;;;0.65;0.60;;;;;;;12.41;98.68;99412.97;4972253;28;20038;-71
2023/11/09 04:27:17;;;;;;;0.70;0.70;;;;;;;12.40;99.26;99416.06;4973476;28;20038;-71
2023/11/09 04:29:43;;;;;;;1.25;0.93;;;;;;;12.39;99.94;99411.81;4991126;28;20027;-71
2023/11/09 04:32:09;;;;;;;1.35;0.57;;;;;;;12.43;99.96;99416.03;4975010;28;20031;-71
2023/11/09 04:34:36;;;;;;;0.73;0.63;;;;;;;12.48;99.36;99407.53;4978361;28;20064;-71
2023/11/09 04:37:01;;;;;;;0.70;0.60;;;;;;;12.33;99.25;99408.75;4994761;28;20680;-71
2023/11/09 04:39:31;;;;;;;1.17;0.65;;;;;;;12.40;99.23;99403.34;4995556;28;20073;-70
2023/11/09 04:42:04;;;;;;;0.45;0.45;;;;;;;12.43;99.80;99407.94;4989421;28;20035;-71
2023/11/09 04:44:30;;;;;;;0.60;0.60;;;;;;;12.40;99.56;99406.03;4973235;28;20565;-71
2023/11/09 04:46:57;;;;;;;0.80;0.80;;;;;;;12.38;99.64;99408.38;4988670;28;20038;-71
2023/11/09 04:49:24;;;;;;;0.60;0.50;;;;;;;12.39;99.12;99393.69;4990796;28;20073;-71
2023/11/09 04:51:51;;;;;;;1.15;0.88;;;;;;;12.33;99.89;99399.94;4975498;28;20057;-71
2023/11/09 04:54:19;;;;;;;3.00;0.70;;;;;;;12.37;99.89;99398.72;4976397;28;20041;-71
2023/11/09 05:07:29;;;;;;;0.68;0.68;;;;;;;12.38;99.81;99386.75;4993227;28;20069;-72
2023/11/09 05:09:56;;;;;;;1.30;0.90;;;;;;;12.31;100.00;99375.25;4975252;28;20018;-71
2023/11/09 05:12:21;;;;;;;0.85;0.60;;;;;;;12.28;100.00;99368.72;5001007;28;20060;-71
2023/11/09 05:14:47;;;;;;;0.90;0.75;;;;;;;12.34;99.95;99364.41;4975016;28;20022;-72
2023/11/09 05:17:15;;;;;;;0.52;0.52;;;;;;;12.20;100.00;99369.91;4977724;28;20125;-72
2023/11/09 05:19:44;;;;;;;0.95;0.80;;;;;;;12.16;100.00;99366.47;4992195;28;20470;-71
2023/11/09 05:22:10;;;;;;;1.05;0.80;;;;;;;12.30;100.00;99360.97;4976741;28;20026;-71
2023/11/09 05:24:37;;;;;;;0.60;0.55;;;;;;;12.26;100.00;99359.47;4996440;28;20038;-71
2023/11/09 05:27:03;;;;;;;0.68;0.65;;;;;;;12.34;100.00;99360.94;4971209;28;20659;-71
2023/11/09 05:29:31;;;;;;;0.95;0.63;;;;;;;12.33;100.00;99359.44;4994250;28;20058;-71
2023/11/09 05:31:57;;;;;;;0.65;0.60;;;;;;;12.47;100.00;99357.38;4976219;28;20030;-71
2023/11/09 05:34:22;;;;;;;0.95;0.75;;;;;;;12.47;100.00;99353.88;4981483;28;20098;-71
2023/11/09 05:36:48;;;;;;;0.75;0.63;;;;;;;12.37;99.19;99343.94;4964398;28;20042;-71
2023/11/09 05:39:14;;;;;;;0.75;0.65;;;;;;;12.33;100.00;99354.78;4977100;28;20034;-72
2023/11/09 05:41:41;;;;;;;1.02;0.80;;;;;;;12.37;100.00;99352.81;4990402;28;20482;-71
2023/11/09 05:44:07;;;;;;;1.45;0.68;;;;;;;12.37;99.95;99344.72;4991327;28;20410;-71
2023/11/09 05:46:33;;;;;;;1.85;1.10;;;;;;;12.41;99.85;99344.69;4976797;28;20034;-71
2023/11/09 05:48:59;;;;;;;1.63;0.88;;;;;;;12.42;99.91;99343.53;4959015;28;20038;-71
2023/11/09 05:51:24;;;;;;;2.10;0.93;;;;;;;12.40;99.20;99338.53;4974915;28;20026;-71
2023/11/09 05:53:53;;;;;;;1.35;0.73;;;;;;;12.43;100.00;99335.03;4990798;28;20030;-71
2023/11/09 05:56:20;;;;;;;0.73;0.68;;;;;;;12.32;100.00;99331.66;4961319;28;20082;-71
2023/11/09 05:58:45;;;;;;;1.25;0.80;;;;;;;12.36;100.00;99331.63;4977504;28;20042;-71
2023/11/09 06:01:11;;;;;;;0.82;0.70;;;;;;;12.27;100.00;99334.03;4980717;28;20084;-71
2023/11/09 06:03:37;;;;;;;1.13;1.02;;;;;;;12.34;100.00;99333.94;4985434;28;20072;-71
2023/11/09 06:06:13;;;;;;;1.92;0.90;;;;;;;12.33;100.00;99333.19;4975855;28;20557;-71
2023/11/09 06:08:39;;;;;;;1.65;1.17;;;;;;;12.43;100.00;99334.25;4985971;28;20052;-71
2023/11/09 06:11:04;;;;;;;0.65;0.65;;;;;;;12.42;99.49;99325.41;4987772;28;20117;-71
2023/11/09 06:13:30;;;;;;;1.00;0.90;;;;;;;12.47;99.28;99340.38;4957395;28;20092;-71
2023/11/09 06:15:57;;;;;;;1.13;0.85;;;;;;;12.46;99.20;99336.16;4992451;28;20117;-71
2023/11/09 06:18:26;;;;;;;1.95;1.02;;;;;;;12.33;99.71;99329.72;4986989;28;20110;-71
2023/11/09 06:20:53;;;;;;;1.08;0.80;;;;;;;12.33;99.87;99330.47;4953051;28;20053;-71
2023/11/09 06:23:22;;;;;;;1.77;0.80;;;;;;;12.34;100.00;99325.84;4988715;28;20410;-71
2023/11/09 06:25:51;;;;;;;1.38;0.93;;;;;;;12.31;100.00;99322.00;4983195;28;20549;-73
2023/11/09 06:28:17;;;;;;;1.17;0.82;;;;;;;12.37;100.00;99323.13;4960532;28;20018;-72
2023/11/09 06:30:42;;;;;;;1.17;0.85;;;;;;;12.33;100.00;99318.94;4973730;28;20550;-71
2023/11/09 06:33:09;;;;;;;1.00;1.00;;;;;;;12.33;100.00;99316.97;4975680;28;20097;-71
2023/11/09 06:35:34;;;;;;;1.50;1.10;;;;;;;12.32;100.00;99323.56;4990930;28;20371;-71
2023/11/09 06:38:00;;;;;;;0.60;0.60;;;;;;;12.32;100.00;99315.47;4987287;28;20018;-71
2023/11/09 06:40:31;;;;;;;3.30;0.90;;;;;;;12.31;100.00;99322.00;4975684;28;20034;-71
2023/11/09 06:42:56;;;;;;;2.03;1.40;;;;;;;12.38;100.00;99316.56;4974119;28;20070;-71
2023/11/09 06:45:23;;;;;;;2.72;1.38;;;;;;;12.28;100.00;99322.03;4971137;28;20093;-70
2023/11/09 06:47:48;;;;;;;0.93;0.90;;;;;;;12.38;100.00;99321.19;4952300;28;20118;-71
2023/11/09 06:50:16;;;;;;;1.58;1.13;;;;;;;12.37;100.00;99315.03;4975506;28;20653;-71
2023/11/09 06:52:42;;;;;;;1.15;1.05;;;;;;;12.35;100.00;99305.81;4991544;28;20044;-71
2023/11/09 06:55:14;;;;;;;0.80;0.80;;;;;;;12.38;100.00;99308.47;4978868;28;20046;-71
2023/11/09 06:57:42;;;;;;;3.08;1.73;;;;;;;12.40;100.00;99319.63;4993801;28;20038;-71
2023/11/09 07:00:12;;;;;;;1.05;0.85;;;;;;;12.40;99.72;99308.84;4972338;28;20035;-70
2023/11/09 07:02:39;;;;;;;1.85;1.15;;;;;;;12.37;100.00;99304.22;4992236;28;20037;-70
2023/11/09 07:05:06;;;;;;;1.25;1.02;;;;;;;12.33;100.00;99308.88;4989589;28;20534;-70
2023/11/09 07:07:32;;;;;;;1.92;0.82;;;;;;;12.33;99.78;99316.25;4989440;28;20049;-70
2023/11/09 07:09:58;;;;;;;2.03;0.95;;;;;;;12.29;100.00;99305.44;4958960;28;20030;-71
2023/11/09 07:12:25;;;;;;;1.67;1.13;;;;;;;12.31;100.00;99313.16;4985879;28;20034;-71
2023/11/09 07:14:51;;;;;;;1.70;1.30;;;;;;;12.40;100.00;99308.06;4990132;28;20036;-72
2023/11/09 07:17:17;;;;;;;2.97;1.23;;;;;;;12.46;100.00;99296.44;4976888;28;20034;-71
2023/11/09 07:19:47;;;;;;;1.40;1.15;;;;;;;12.38;100.00;99299.59;4975786;28;20040;-71
2023/11/09 07:22:17;;;;;;;1.20;1.10;;;;;;;12.47;99.70;99303.38;4988016;28;20042;-71
2023/11/09 07:24:43;;;;;;;1.08;0.85;;;;;;;12.48;99.98;99304.91;4960388;28;20026;-71
2023/11/09 07:27:09;;;;;;;0.95;0.82;;;;;;;12.45;99.53;99305.69;4974970;28;20073;-71
2023/11/09 07:29:36;;;;;;;1.35;0.80;;;;;;;12.38;100.00;99300.38;4959656;28;20065;-71
2023/11/09 07:32:02;;;;;;;1.42;0.90;;;;;;;12.40;100.00;99298.03;4995785;28;20026;-71
2023/11/09 07:34:27;;;;;;;1.17;0.93;;;;;;;12.37;100.00;99314.25;4977305;28;20077;-71
2023/11/09 07:36:53;;;;;;;1.20;1.08;;;;;;;12.36;100.00;99300.00;4959921;28;20483;-71
2023/11/09 07:39:19;;;;;;;2.35;1.30;;;;;;;12.23;100.00;99298.19;4971909;28;20062;-71
2023/11/09 07:41:44;;;;;;;2.80;1.27;;;;;;;12.21;100.00;99303.22;4993639;28;20495;-72
2023/11/09 07:44:10;;;;;;;1.10;1.00;;;;;;;12.16;100.00;99300.94;4979253;28;20081;-71
2023/11/09 07:46:36;;;;;;;2.55;1.30;;;;;;;12.23;100.00;99306.28;4980185;28;20473;-71
2023/11/09 07:49:03;;;;;;;1.00;0.73;;;;;;;12.29;100.00;99302.00;4996873;28;20037;-71
2023/11/09 07:51:29;;;;;;;1.95;0.93;;;;;;;12.32;100.00;99301.97;4955216;28;20038;-71
2023/11/09 07:53:55;;;;;;;1.20;1.00;;;;;;;12.38;100.00;99305.78;4972428;28;20696;-71
2023/11/09 07:56:21;;;;;;;1.55;1.00;;;;;;;12.44;100.00;99303.41;4990182;28;20651;-71
2023/11/09 07:58:46;;;;;;;2.00;1.08;;;;;;;12.50;100.00;99307.94;4975409;28;20034;-71
2023/11/09 08:01:12;;;;;;;0.98;0.88;;;;;;;12.46;100.00;99309.16;4974499;28;20538;-71
2023/11/09 08:03:39;;;;;;;1.17;1.08;;;;;;;12.43;100.00;99296.44;4976873;28;20022;-70
2023/11/09 08:06:07;;;;;;;2.45;1.30;;;;;;;12.41;100.00;99296.84;4984812;28;20034;-70
2023/11/09 08:08:34;;;;;;;1.48;1.20;;;;;;;12.44;100.00;99303.41;4972052;28;20422;-70
2023/11/09 08:11:00;;;;;;;1.33;1.08;;;;;;;12.43;100.00;99299.16;4981192;28;20585;-71
2023/11/09 08:13:27;;;;;;;2.95;0.90;;;;;;;12.46;100.00;99306.47;4977209;28;20052;-70
2023/11/09 08:15:54;;;;;;;1.35;0.93;;;;;;;12.43;100.00;99304.56;4987349;28;20026;-70
2023/11/09 08:18:20;;;;;;;2.05;0.90;;;;;;;12.29;100.00;99297.34;4970931;28;20475;-71
2023/11/09 08:20:45;;;;;;;1.40;1.20;;;;;;;12.16;100.00;99296.31;4969978;28;20027;-70
2023/11/09 08:23:10;;;;;;;4.00;1.50;;;;;;;12.26;100.00;99300.84;4970621;28;20418;-70
2023/11/09 08:25:37;;;;;;;1.95;1.05;;;;;;;12.33;100.00;99292.69;4972139;28;20026;-71
2023/11/09 08:28:02;;;;;;;2.17;1.25;;;;;;;12.30;100.00;99295.41;4976830;28;20030;-70
2023/11/09 08:30:27;;;;;;;1.23;0.80;;;;;;;12.39;100.00;99293.78;4981047;28;20096;-70
2023/11/09 10:52:08;;;;;;;1.80;1.20;;;;;;;12.31;100.00;99292.31;5070614;27;20433;-65
2023/11/09 10:54:36;;;;;;;1.58;1.30;;;;;;;12.55;100.00;99288.63;5038482;28;20565;-65
2023/11/09 10:57:01;;;;;;;2.08;0.80;;;;;;;12.72;100.00;99280.75;5040754;28;20036;-65
2023/11/09 10:59:29;;;;;;;1.02;0.93;;;;;;;12.68;100.00;99284.25;5036786;28;20029;-65
2023/11/09 11:02:11;;;;;;;1.33;1.00;;;;;;;12.70;100.00;99279.19;5043186;28;20037;-65
2023/11/09 11:04:41;;;;;;;0.80;0.80;;;;;;;12.80;100.00;99282.97;5044284;28;20048;-65
2023/11/09 11:07:09;;;;;;;1.15;1.00;;;;;;;12.81;100.00;99279.09;5043946;28;20044;-65
2023/11/09 11:09:37;;;;;;;1.10;1.00;;;;;;;12.88;100.00;99272.84;5043377;28;20033;-66
2023/11/09 11:12:07;;;;;;;1.10;1.00;;;;;;;12.93;100.00;99283.97;5044698;28;20049;-65
2023/11/09 11:14:36;;;;;;;1.17;1.08;;;;;;;13.01;100.00;99277.31;5041129;28;20053;-65
2023/11/09 11:17:22;;;;;;;1.17;1.08;;;;;;;13.01;100.00;99287.34;5057046;28;20482;-65
2023/11/09 11:19:51;;;;;;;1.50;1.35;;;;;;;13.07;100.00;99280.34;5042129;28;20108;-65
2023/11/09 11:22:44;;;;;;;1.30;1.20;;;;;;;13.08;100.00;99282.66;5056677;28;20454;-65
2023/11/09 11:25:28;;;;;;;1.10;1.00;;;;;;;12.97;100.00;99273.88;5044783;28;20033;-65
2023/11/09 11:27:56;;;;;;;1.45;1.10;;;;;;;13.05;100.00;99280.75;5059960;28;20029;-65
2023/11/09 11:30:23;;;;;;;1.17;1.00;;;;;;;13.20;100.00;99271.28;5042994;28;20033;-65
2023/11/09 11:32:51;;;;;;;1.08;1.00;;;;;;;13.25;100.00;99276.28;5047084;28;20110;-65
2023/11/09 11:35:29;;;;;;;1.45;1.00;;;;;;;13.12;100.00;99272.59;5039202;28;20033;-65
2023/11/09 11:38:17;;;;;;;1.23;1.13;;;;;;;13.10;100.00;99279.56;5061208;28;20045;-65
2023/11/09 11:40:44;;;;;;;1.45;1.23;;;;;;;13.13;100.00;99279.50;5044615;28;20067;-65
2023/11/09 11:43:11;;;;;;;1.75;1.40;;;;;;;13.21;100.00;99274.78;5054157;28;21386;-65
2023/11/09 11:45:40;;;;;;;1.55;1.45;;;;;;;13.10;100.00;99274.94;5039094;28;20044;-66
2023/11/09 11:48:12;;;;;;;2.03;1.35;;;;;;;13.06;100.00;99273.44;5042846;28;20037;-65
2023/11/09 11:50:41;;;;;;;1.63;0.95;;;;;;;13.17;100.00;99268.66;5042067;28;20106;-65
2023/11/09 11:53:12;;;;;;;1.42;1.25;;;;;;;13.24;100.00;99272.03;5024899;28;20033;-65
2023/11/09 11:55:38;;;;;;;;;;;;;;;13.30;100.00;99272.31;5029102;28;20609;-65
2023/11/09 11:58:07;;;;;;;1.10;0.88;;;;;;;13.24;100.00;99271.28;5035946;28;19999;-65
2023/11/09 12:00:40;;;;;;;1.73;1.40;;;;;;;13.32;100.00;99276.16;5030353;28;20072;-65
2023/11/09 12:03:16;;;;;;;2.15;1.35;;;;;;;13.28;100.00;99278.16;5027090;28;20034;-65
2023/11/09 12:05:43;;;;;;;1.77;1.20;;;;;;;13.26;100.00;99268.91;5031791;28;20384;-65
2023/11/09 12:08:12;;;;;;;3.95;0.80;;;;;;;13.35;100.00;99274.59;5033664;28;20059;-65
2023/11/09 12:10:44;;;;;;;1.30;1.10;;;;;;;13.38;100.00;99257.53;5030732;28;20033;-65
2023/11/09 12:13:10;;;;;;;3.25;1.30;;;;;;;13.43;100.00;99263.25;5031773;28;20651;-65
2023/11/09 12:15:37;;;;;;;1.52;1.30;;;;;;;13.41;100.00;99270.25;5044924;28;20029;-66
2023/11/09 12:18:03;;;;;;;1.77;1.10;;;;;;;13.36;100.00;99265.28;5041137;28;20068;-65
2023/11/09 12:25:11;;;;;;;1.98;1.33;;;;;;;12.67;100.00;99250.31;5029736;27;21080;-65
2023/11/09 12:27:38;;;;;;;1.40;1.13;;;;;;;12.96;100.00;99258.06;5035873;27;20033;-65
2023/11/09 12:30:05;;;;;;;1.63;1.25;;;;;;;13.16;100.00;99253.63;5034389;27;20057;-65
2023/11/09 12:32:31;;;;;;;2.47;1.50;;;;;;;13.16;100.00;99261.72;5032879;27;20577;-65
2023/11/09 12:34:59;;;;;;;1.83;1.30;;;;;;;13.18;100.00;99265.53;5035321;27;20033;-65
2023/11/09 12:37:36;;;;;;;1.10;1.00;;;;;;;13.17;100.00;99260.53;5041289;27;20037;-66
2023/11/09 12:40:04;;;;;;;1.02;0.95;;;;;;;13.35;100.00;99259.16;5035732;27;20436;-65
2023/11/09 12:42:31;;;;;;;1.75;1.27;;;;;;;13.49;100.00;99266.28;5028986;27;20033;-66
2023/11/09 12:44:56;;;;;;;1.20;1.10;;;;;;;13.54;100.00;99250.38;5028824;28;20761;-65
2023/11/09 12:47:25;;;;;;;1.15;1.05;;;;;;;13.61;100.00;99254.16;5031747;27;20042;-65
2023/11/09 12:50:01;;;;;;;1.58;1.20;;;;;;;13.61;100.00;99246.03;5029797;28;20489;-66
2023/11/09 12:52:28;;;;;;;1.98;1.10;;;;;;;13.58;100.00;99245.66;5030841;27;20029;-65
2023/11/09 12:54:55;;;;;;;1.35;1.20;;;;;;;13.65;100.00;99252.13;5035592;28;20030;-65
2023/11/09 12:57:22;;;;;;;1.92;1.58;;;;;;;13.71;99.99;99255.91;5038450;28;20022;-65
2023/11/09 12:59:55;;;;;;;2.13;1.30;;;;;;;13.74;99.78;99249.69;5036357;27;20044;-64
2023/11/09 13:02:32;;;;;;;2.15;1.40;;;;;;;13.74;100.00;99260.50;5039410;28;20029;-65
2023/11/09 13:05:00;;;;;;;4.07;1.17;;;;;;;13.74;99.43;99246.97;5042901;28;20036;-66
2023/11/09 13:07:26;;;;;;;1.17;1.08;;;;;;;13.78;99.83;99261.97;5036537;28;20021;-65
2023/11/09 13:12:39;;;;;;;2.15;1.50;;;;;;;13.77;98.53;99246.16;5033307;27;20513;-65
2023/11/09 13:17:35;;;;;;;1.60;1.02;;;;;;;13.63;99.04;99252.53;5037196;28;20038;-64
2023/11/09 13:20:01;;;;;;;2.33;1.20;;;;;;;13.68;98.73;99251.31;5039177;28;20033;-64
2023/11/09 13:22:32;;;;;;;1.77;1.05;;;;;;;13.78;99.02;99258.53;5031615;27;20029;-65
2023/11/09 13:24:58;;;;;;;1.37;1.20;;;;;;;13.77;98.33;99257.75;5037646;27;20861;-65
2023/11/09 13:43:35;;;;;;;1.10;1.00;;;;;;;13.80;96.95;99261.59;5521909;22;20174;-67
2023/11/09 13:46:06;;;;;;;0.75;0.70;;;;;;;13.73;95.96;99261.66;4994366;28;20129;-67
2023/11/09 13:48:32;;;;;;;1.02;0.95;;;;;;;13.65;94.88;99265.66;4983479;28;20077;-67
2023/11/09 13:51:00;;;;;;;0.80;0.80;;;;;;;13.49;95.94;99267.03;4978547;28;20030;-68
2023/11/09 13:58:36;;;;;;;1.25;1.00;;;;;;;13.51;95.41;99269.34;4987803;28;20336;-66
2023/11/09 14:01:05;;;;;;;2.03;1.00;;;;;;;13.51;95.59;99269.34;4982456;28;20042;-67
2023/11/09 14:03:40;;;;;;;0.50;0.50;;;;;;;13.57;95.44;99265.00;4985452;28;20135;-67
2023/11/09 14:06:11;;;;;;;1.25;0.77;;;;;;;13.56;95.22;99264.25;4986298;28;20034;-67
2023/11/09 14:08:40;;;;;;;;;;;;;;;13.51;94.89;99263.94;4987271;28;20108;-66
2023/11/09 14:11:09;;;;;;;1.52;0.90;;;;;;;13.58;94.59;99266.53;4982641;28;19914;-67
2023/11/09 14:13:41;;;;;;;1.58;0.90;;;;;;;13.34;94.92;99267.63;4986360;28;20027;-67
2023/11/09 14:16:19;;;;;;;;;;;;;;;13.36;95.79;99271.47;4985669;28;20091;-66
2023/11/09 14:18:59;;;;;;;1.27;0.93;;;;;;;13.28;95.87;99270.03;4984188;28;19944;-67
2023/11/09 14:21:32;;;;;;;2.38;1.05;;;;;;;13.24;95.91;99272.03;4986866;28;20478;-68
2023/11/09 14:23:58;;;;;;;1.30;1.00;;;;;;;13.35;96.05;99263.78;4986462;28;20101;-67
2023/11/09 14:26:27;;;;;;;1.38;1.02;;;;;;;13.30;96.33;99258.81;4984303;28;20037;-67
2023/11/09 14:29:01;;;;;;;3.53;1.20;;;;;;;13.34;95.68;99265.72;4986807;28;20030;-66
2023/11/09 14:31:36;;;;;;;2.67;1.17;;;;;;;13.35;95.61;99259.16;4984558;28;20030;-66
2023/11/09 14:34:12;;;;;;;1.58;1.00;;;;;;;13.38;95.52;99261.03;4979388;28;20023;-68